sensor_id;sensor_type;location;lat;lon;timestamp;temperature;humidity
22645;DHT22;11489;50.834;6.752;2022-11-20T00:00:29;3.90;92.60
22645;DHT22;11489;50.834;6.752;2022-11-20T00:02:55;3.90;92.60
22645;DHT22;11489;50.834;6.752;2022-11-20T00:05:21;3.90;92.60
22645;DHT22;11489;50.834;6.752;2022-11-20T00:07:47;3.90;92.60
22645;DHT22;11489;50.834;6.752;2022-11-20T00:10:12;3.90;92.60
22645;DHT22;11489;50.834;6.752;2022-11-20T00:12:38;3.90;92.70
22645;DHT22;11489;50.834;6.752;2022-11-20T00:15:04;3.90;92.70
22645;DHT22;11489;50.834;6.752;2022-11-20T00:17:30;3.90;92.70
22645;DHT22;11489;50.834;6.752;2022-11-20T00:19:55;3.90;92.70
22645;DHT22;11489;50.834;6.752;2022-11-20T00:22:21;3.90;92.60
22645;DHT22;11489;50.834;6.752;2022-11-20T00:24:47;3.90;92.60
22645;DHT22;11489;50.834;6.752;2022-11-20T00:27:12;3.90;92.60
22645;DHT22;11489;50.834;6.752;2022-11-20T00:29:38;3.90;92.60
22645;DHT22;11489;50.834;6.752;2022-11-20T00:32:04;3.90;92.60
22645;DHT22;11489;50.834;6.752;2022-11-20T00:34:30;3.90;92.50
22645;DHT22;11489;50.834;6.752;2022-11-20T00:36:55;3.90;92.50
22645;DHT22;11489;50.834;6.752;2022-11-20T00:39:21;3.90;92.50
22645;DHT22;11489;50.834;6.752;2022-11-20T00:41:46;3.90;92.50
22645;DHT22;11489;50.834;6.752;2022-11-20T00:44:12;3.90;92.60
22645;DHT22;11489;50.834;6.752;2022-11-20T00:46:38;3.90;92.60
22645;DHT22;11489;50.834;6.752;2022-11-20T00:49:04;3.90;92.60
22645;DHT22;11489;50.834;6.752;2022-11-20T00:51:30;3.90;92.70
22645;DHT22;11489;50.834;6.752;2022-11-20T00:53:57;3.90;92.70
22645;DHT22;11489;50.834;6.752;2022-11-20T00:56:25;3.90;92.70
22645;DHT22;11489;50.834;6.752;2022-11-20T00:58:51;3.90;92.70
22645;DHT22;11489;50.834;6.752;2022-11-20T01:01:19;3.90;92.70
22645;DHT22;11489;50.834;6.752;2022-11-20T01:03:50;3.90;92.70
22645;DHT22;11489;50.834;6.752;2022-11-20T01:08:43;3.90;92.60
22645;DHT22;11489;50.834;6.752;2022-11-20T01:11:12;3.90;92.60
22645;DHT22;11489;50.834;6.752;2022-11-20T01:13:39;3.90;92.70
22645;DHT22;11489;50.834;6.752;2022-11-20T01:16:20;3.90;92.60
22645;DHT22;11489;50.834;6.752;2022-11-20T01:18:48;3.90;92.50
22645;DHT22;11489;50.834;6.752;2022-11-20T01:21:29;3.90;92.60
22645;DHT22;11489;50.834;6.752;2022-11-20T01:23:55;3.90;92.50
22645;DHT22;11489;50.834;6.752;2022-11-20T01:26:23;3.90;92.60
22645;DHT22;11489;50.834;6.752;2022-11-20T01:28:50;3.90;92.60
22645;DHT22;11489;50.834;6.752;2022-11-20T01:31:21;3.90;92.60
22645;DHT22;11489;50.834;6.752;2022-11-20T01:33:49;3.90;92.60
22645;DHT22;11489;50.834;6.752;2022-11-20T01:36:16;3.90;92.60
22645;DHT22;11489;50.834;6.752;2022-11-20T01:38:42;4.00;92.60
22645;DHT22;11489;50.834;6.752;2022-11-20T01:41:10;4.00;92.50
22645;DHT22;11489;50.834;6.752;2022-11-20T01:43:36;3.90;92.40
22645;DHT22;11489;50.834;6.752;2022-11-20T01:46:17;3.90;92.20
22645;DHT22;11489;50.834;6.752;2022-11-20T01:49:00;3.90;92.00
22645;DHT22;11489;50.834;6.752;2022-11-20T01:51:35;3.80;92.00
22645;DHT22;11489;50.834;6.752;2022-11-20T01:54:41;3.80;92.00
22645;DHT22;11489;50.834;6.752;2022-11-20T01:56:59;3.70;92.00
22645;DHT22;11489;50.834;6.752;2022-11-20T01:59:26;3.60;92.00
22645;DHT22;11489;50.834;6.752;2022-11-20T02:01:54;3.60;92.00
22645;DHT22;11489;50.834;6.752;2022-11-20T02:04:20;3.60;92.00
22645;DHT22;11489;50.834;6.752;2022-11-20T02:06:49;3.50;92.10
22645;DHT22;11489;50.834;6.752;2022-11-20T02:09:16;3.50;92.20
22645;DHT22;11489;50.834;6.752;2022-11-20T02:11:42;3.50;92.30
22645;DHT22;11489;50.834;6.752;2022-11-20T02:14:08;3.50;92.30
22645;DHT22;11489;50.834;6.752;2022-11-20T02:16:36;3.50;92.40
22645;DHT22;11489;50.834;6.752;2022-11-20T02:19:06;3.50;92.50
22645;DHT22;11489;50.834;6.752;2022-11-20T02:21:35;3.50;92.50
22645;DHT22;11489;50.834;6.752;2022-11-20T02:27:02;3.50;92.60
22645;DHT22;11489;50.834;6.752;2022-11-20T02:29:34;3.50;92.60
22645;DHT22;11489;50.834;6.752;2022-11-20T02:32:02;3.50;92.60
22645;DHT22;11489;50.834;6.752;2022-11-20T02:34:28;3.50;92.60
22645;DHT22;11489;50.834;6.752;2022-11-20T02:36:54;3.50;92.50
22645;DHT22;11489;50.834;6.752;2022-11-20T02:39:23;3.50;92.40
22645;DHT22;11489;50.834;6.752;2022-11-20T02:41:52;3.50;92.40
22645;DHT22;11489;50.834;6.752;2022-11-20T02:44:19;3.40;92.40
22645;DHT22;11489;50.834;6.752;2022-11-20T02:46:45;3.40;92.40
22645;DHT22;11489;50.834;6.752;2022-11-20T02:49:11;3.40;92.40
22645;DHT22;11489;50.834;6.752;2022-11-20T02:51:37;3.40;92.50
22645;DHT22;11489;50.834;6.752;2022-11-20T02:54:02;3.40;92.60
22645;DHT22;11489;50.834;6.752;2022-11-20T02:56:28;3.40;92.60
22645;DHT22;11489;50.834;6.752;2022-11-20T02:58:54;3.40;92.70
22645;DHT22;11489;50.834;6.752;2022-11-20T03:01:20;3.40;92.70
22645;DHT22;11489;50.834;6.752;2022-11-20T03:03:45;3.50;92.80
22645;DHT22;11489;50.834;6.752;2022-11-20T03:06:11;3.50;92.80
22645;DHT22;11489;50.834;6.752;2022-11-20T03:08:36;3.50;92.80
22645;DHT22;11489;50.834;6.752;2022-11-20T03:11:06;3.50;92.90
22645;DHT22;11489;50.834;6.752;2022-11-20T03:13:33;3.50;92.90
22645;DHT22;11489;50.834;6.752;2022-11-20T03:16:11;3.50;93.00
22645;DHT22;11489;50.834;6.752;2022-11-20T03:18:38;3.50;92.90
22645;DHT22;11489;50.834;6.752;2022-11-20T03:21:04;3.50;92.90
22645;DHT22;11489;50.834;6.752;2022-11-20T03:23:30;3.60;93.00
22645;DHT22;11489;50.834;6.752;2022-11-20T03:26:08;3.60;93.00
22645;DHT22;11489;50.834;6.752;2022-11-20T03:28:33;3.60;92.90
22645;DHT22;11489;50.834;6.752;2022-11-20T03:31:14;3.60;92.90
22645;DHT22;11489;50.834;6.752;2022-11-20T03:33:41;3.60;92.80
22645;DHT22;11489;50.834;6.752;2022-11-20T03:36:18;3.60;92.80
22645;DHT22;11489;50.834;6.752;2022-11-20T03:38:45;3.70;92.80
22645;DHT22;11489;50.834;6.752;2022-11-20T03:41:14;3.70;92.80
22645;DHT22;11489;50.834;6.752;2022-11-20T03:43:40;3.70;92.80
22645;DHT22;11489;50.834;6.752;2022-11-20T03:46:06;3.70;92.80
22645;DHT22;11489;50.834;6.752;2022-11-20T03:48:32;3.70;92.90
22645;DHT22;11489;50.834;6.752;2022-11-20T03:51:12;3.70;92.90
22645;DHT22;11489;50.834;6.752;2022-11-20T03:53:39;3.70;92.80
22645;DHT22;11489;50.834;6.752;2022-11-20T03:56:06;3.70;92.80
22645;DHT22;11489;50.834;6.752;2022-11-20T03:58:33;3.80;92.80
22645;DHT22;11489;50.834;6.752;2022-11-20T04:03:34;3.80;92.80
22645;DHT22;11489;50.834;6.752;2022-11-20T04:06:09;3.80;92.80
22645;DHT22;11489;50.834;6.752;2022-11-20T04:08:34;3.80;92.70
22645;DHT22;11489;50.834;6.752;2022-11-20T04:11:20;3.80;92.70
22645;DHT22;11489;50.834;6.752;2022-11-20T04:13:48;3.80;92.90
22645;DHT22;11489;50.834;6.752;2022-11-20T04:16:15;3.80;92.70
22645;DHT22;11489;50.834;6.752;2022-11-20T04:18:41;3.70;92.70
22645;DHT22;11489;50.834;6.752;2022-11-20T04:21:07;3.70;92.70
22645;DHT22;11489;50.834;6.752;2022-11-20T04:23:33;3.70;92.80
22645;DHT22;11489;50.834;6.752;2022-11-20T04:26:09;3.80;92.80
22645;DHT22;11489;50.834;6.752;2022-11-20T04:28:36;3.70;92.70
22645;DHT22;11489;50.834;6.752;2022-11-20T04:31:10;3.80;92.80
22645;DHT22;11489;50.834;6.752;2022-11-20T04:33:39;3.80;92.80
22645;DHT22;11489;50.834;6.752;2022-11-20T04:36:09;3.80;92.80
22645;DHT22;11489;50.834;6.752;2022-11-20T04:38:35;3.80;92.80
22645;DHT22;11489;50.834;6.752;2022-11-20T04:41:03;3.80;92.70
22645;DHT22;11489;50.834;6.752;2022-11-20T04:43:30;3.80;92.70
22645;DHT22;11489;50.834;6.752;2022-11-20T04:45:56;3.80;92.70
22645;DHT22;11489;50.834;6.752;2022-11-20T04:48:23;3.80;92.70
22645;DHT22;11489;50.834;6.752;2022-11-20T04:50:50;3.80;92.70
22645;DHT22;11489;50.834;6.752;2022-11-20T04:53:16;3.80;92.80
22645;DHT22;11489;50.834;6.752;2022-11-20T04:55:41;3.80;92.70
22645;DHT22;11489;50.834;6.752;2022-11-20T04:58:07;3.80;92.70
22645;DHT22;11489;50.834;6.752;2022-11-20T05:00:33;3.80;92.70
22645;DHT22;11489;50.834;6.752;2022-11-20T05:02:59;3.80;92.70
22645;DHT22;11489;50.834;6.752;2022-11-20T05:05:24;3.80;92.70
22645;DHT22;11489;50.834;6.752;2022-11-20T05:07:50;3.80;92.70
22645;DHT22;11489;50.834;6.752;2022-11-20T05:10:16;3.80;92.70
22645;DHT22;11489;50.834;6.752;2022-11-20T05:12:41;3.80;92.70
22645;DHT22;11489;50.834;6.752;2022-11-20T05:15:07;3.80;92.70
22645;DHT22;11489;50.834;6.752;2022-11-20T05:17:33;3.70;92.70
22645;DHT22;11489;50.834;6.752;2022-11-20T05:19:58;3.70;92.70
22645;DHT22;11489;50.834;6.752;2022-11-20T05:22:24;3.80;92.70
22645;DHT22;11489;50.834;6.752;2022-11-20T05:24:50;3.70;92.70
22645;DHT22;11489;50.834;6.752;2022-11-20T05:27:15;3.80;92.70
22645;DHT22;11489;50.834;6.752;2022-11-20T05:29:41;3.70;92.80
22645;DHT22;11489;50.834;6.752;2022-11-20T05:32:07;3.80;92.80
22645;DHT22;11489;50.834;6.752;2022-11-20T05:34:35;3.80;92.90
22645;DHT22;11489;50.834;6.752;2022-11-20T05:37:01;3.70;92.90
22645;DHT22;11489;50.834;6.752;2022-11-20T05:39:27;3.70;93.20
22645;DHT22;11489;50.834;6.752;2022-11-20T05:41:53;3.70;92.80
22645;DHT22;11489;50.834;6.752;2022-11-20T05:44:38;3.70;92.90
22645;DHT22;11489;50.834;6.752;2022-11-20T05:47:04;3.70;92.90
22645;DHT22;11489;50.834;6.752;2022-11-20T05:49:30;3.70;92.90
22645;DHT22;11489;50.834;6.752;2022-11-20T05:51:56;3.70;92.90
22645;DHT22;11489;50.834;6.752;2022-11-20T05:54:21;3.70;92.90
22645;DHT22;11489;50.834;6.752;2022-11-20T05:56:47;3.70;92.90
22645;DHT22;11489;50.834;6.752;2022-11-20T05:59:13;3.70;92.90
22645;DHT22;11489;50.834;6.752;2022-11-20T06:01:38;3.70;92.90
22645;DHT22;11489;50.834;6.752;2022-11-20T06:04:04;3.70;92.90
22645;DHT22;11489;50.834;6.752;2022-11-20T06:06:30;3.70;93.00
22645;DHT22;11489;50.834;6.752;2022-11-20T06:08:55;3.70;93.00
22645;DHT22;11489;50.834;6.752;2022-11-20T06:11:21;3.70;93.00
22645;DHT22;11489;50.834;6.752;2022-11-20T06:13:47;3.70;93.00
22645;DHT22;11489;50.834;6.752;2022-11-20T06:16:16;3.70;93.00
22645;DHT22;11489;50.834;6.752;2022-11-20T06:18:42;3.70;93.00
22645;DHT22;11489;50.834;6.752;2022-11-20T06:21:17;3.70;93.00
22645;DHT22;11489;50.834;6.752;2022-11-20T06:23:43;3.70;93.30
22645;DHT22;11489;50.834;6.752;2022-11-20T06:26:17;3.60;93.00
22645;DHT22;11489;50.834;6.752;2022-11-20T06:28:44;3.70;93.00
22645;DHT22;11489;50.834;6.752;2022-11-20T06:31:11;3.70;93.00
22645;DHT22;11489;50.834;6.752;2022-11-20T06:33:37;3.70;93.00
22645;DHT22;11489;50.834;6.752;2022-11-20T06:36:03;3.70;93.10
22645;DHT22;11489;50.834;6.752;2022-11-20T06:38:29;3.70;93.10
22645;DHT22;11489;50.834;6.752;2022-11-20T06:40:55;3.70;93.10
22645;DHT22;11489;50.834;6.752;2022-11-20T06:43:23;3.70;93.10
22645;DHT22;11489;50.834;6.752;2022-11-20T06:45:53;3.70;93.10
22645;DHT22;11489;50.834;6.752;2022-11-20T06:48:19;3.70;93.10
22645;DHT22;11489;50.834;6.752;2022-11-20T06:50:46;3.70;93.10
22645;DHT22;11489;50.834;6.752;2022-11-20T06:53:11;3.80;93.10
22645;DHT22;11489;50.834;6.752;2022-11-20T06:55:45;3.80;93.10
22645;DHT22;11489;50.834;6.752;2022-11-20T06:58:11;3.80;93.10
22645;DHT22;11489;50.834;6.752;2022-11-20T07:00:37;3.80;93.10
22645;DHT22;11489;50.834;6.752;2022-11-20T07:03:04;3.80;93.10
22645;DHT22;11489;50.834;6.752;2022-11-20T07:05:30;3.90;93.20
22645;DHT22;11489;50.834;6.752;2022-11-20T07:07:56;3.90;93.10
22645;DHT22;11489;50.834;6.752;2022-11-20T07:10:22;3.90;93.10
22645;DHT22;11489;50.834;6.752;2022-11-20T07:12:51;3.90;93.10
22645;DHT22;11489;50.834;6.752;2022-11-20T07:15:18;3.90;93.20
22645;DHT22;11489;50.834;6.752;2022-11-20T07:17:44;3.90;93.20
22645;DHT22;11489;50.834;6.752;2022-11-20T07:20:10;4.00;93.20
22645;DHT22;11489;50.834;6.752;2022-11-20T07:22:36;4.00;93.20
22645;DHT22;11489;50.834;6.752;2022-11-20T07:25:01;4.00;93.10
22645;DHT22;11489;50.834;6.752;2022-11-20T07:27:27;4.00;93.10
22645;DHT22;11489;50.834;6.752;2022-11-20T07:29:53;4.10;93.10
22645;DHT22;11489;50.834;6.752;2022-11-20T07:32:19;4.10;93.10
22645;DHT22;11489;50.834;6.752;2022-11-20T07:34:45;4.10;93.20
22645;DHT22;11489;50.834;6.752;2022-11-20T07:37:10;4.10;93.20
22645;DHT22;11489;50.834;6.752;2022-11-20T07:39:36;4.10;93.10
22645;DHT22;11489;50.834;6.752;2022-11-20T07:42:01;4.10;93.10
22645;DHT22;11489;50.834;6.752;2022-11-20T07:44:27;4.20;93.50
22645;DHT22;11489;50.834;6.752;2022-11-20T07:46:53;4.20;93.20
22645;DHT22;11489;50.834;6.752;2022-11-20T07:49:18;4.20;93.20
22645;DHT22;11489;50.834;6.752;2022-11-20T07:51:44;4.20;93.20
22645;DHT22;11489;50.834;6.752;2022-11-20T07:54:10;4.20;93.20
22645;DHT22;11489;50.834;6.752;2022-11-20T07:56:35;4.30;93.20
22645;DHT22;11489;50.834;6.752;2022-11-20T07:59:01;4.30;93.20
22645;DHT22;11489;50.834;6.752;2022-11-20T08:01:26;4.30;93.20
22645;DHT22;11489;50.834;6.752;2022-11-20T08:03:52;4.30;93.20
22645;DHT22;11489;50.834;6.752;2022-11-20T08:06:18;4.40;93.30
22645;DHT22;11489;50.834;6.752;2022-11-20T08:08:44;4.40;93.40
22645;DHT22;11489;50.834;6.752;2022-11-20T08:11:10;4.40;93.40
22645;DHT22;11489;50.834;6.752;2022-11-20T08:14:02;4.50;93.40
22645;DHT22;11489;50.834;6.752;2022-11-20T08:16:37;4.50;93.40
22645;DHT22;11489;50.834;6.752;2022-11-20T08:19:03;4.50;93.30
22645;DHT22;11489;50.834;6.752;2022-11-20T08:21:30;4.50;93.30
22645;DHT22;11489;50.834;6.752;2022-11-20T08:23:57;4.60;93.30
22645;DHT22;11489;50.834;6.752;2022-11-20T08:26:23;4.60;93.40
22645;DHT22;11489;50.834;6.752;2022-11-20T08:28:49;4.70;93.50
22645;DHT22;11489;50.834;6.752;2022-11-20T08:31:18;4.70;93.60
22645;DHT22;11489;50.834;6.752;2022-11-20T08:33:43;4.80;93.60
22645;DHT22;11489;50.834;6.752;2022-11-20T08:36:09;4.80;93.40
22645;DHT22;11489;50.834;6.752;2022-11-20T08:38:35;4.80;93.30
22645;DHT22;11489;50.834;6.752;2022-11-20T08:41:02;4.80;93.30
22645;DHT22;11489;50.834;6.752;2022-11-20T08:43:47;4.90;93.60
22645;DHT22;11489;50.834;6.752;2022-11-20T08:46:13;4.90;93.40
22645;DHT22;11489;50.834;6.752;2022-11-20T08:48:39;4.90;93.40
22645;DHT22;11489;50.834;6.752;2022-11-20T08:51:04;5.00;93.40
22645;DHT22;11489;50.834;6.752;2022-11-20T08:53:30;5.00;93.40
22645;DHT22;11489;50.834;6.752;2022-11-20T08:55:59;5.00;93.40
22645;DHT22;11489;50.834;6.752;2022-11-20T08:58:25;5.10;93.60
22645;DHT22;11489;50.834;6.752;2022-11-20T09:00:51;5.20;93.70
22645;DHT22;11489;50.834;6.752;2022-11-20T09:03:17;5.20;93.80
22645;DHT22;11489;50.834;6.752;2022-11-20T09:05:42;5.30;93.80
22645;DHT22;11489;50.834;6.752;2022-11-20T09:08:08;5.40;93.70
22645;DHT22;11489;50.834;6.752;2022-11-20T09:10:34;5.50;93.70
22645;DHT22;11489;50.834;6.752;2022-11-20T09:13:00;5.50;93.70
22645;DHT22;11489;50.834;6.752;2022-11-20T09:15:26;5.60;93.70
22645;DHT22;11489;50.834;6.752;2022-11-20T09:17:53;5.70;93.70
22645;DHT22;11489;50.834;6.752;2022-11-20T09:20:20;5.70;93.60
22645;DHT22;11489;50.834;6.752;2022-11-20T09:22:46;5.80;93.50
22645;DHT22;11489;50.834;6.752;2022-11-20T09:25:11;5.80;93.40
22645;DHT22;11489;50.834;6.752;2022-11-20T09:27:37;5.90;93.30
22645;DHT22;11489;50.834;6.752;2022-11-20T09:30:03;5.90;93.20
22645;DHT22;11489;50.834;6.752;2022-11-20T09:32:29;5.90;93.10
22645;DHT22;11489;50.834;6.752;2022-11-20T09:34:55;5.90;93.00
22645;DHT22;11489;50.834;6.752;2022-11-20T09:37:21;5.90;93.00
22645;DHT22;11489;50.834;6.752;2022-11-20T09:39:46;5.90;92.80
22645;DHT22;11489;50.834;6.752;2022-11-20T09:42:36;5.90;92.80
22645;DHT22;11489;50.834;6.752;2022-11-20T09:45:37;6.00;92.70
22645;DHT22;11489;50.834;6.752;2022-11-20T09:48:18;6.00;92.90
22645;DHT22;11489;50.834;6.752;2022-11-20T09:50:57;6.00;92.80
22645;DHT22;11489;50.834;6.752;2022-11-20T09:53:35;6.00;93.20
22645;DHT22;11489;50.834;6.752;2022-11-20T09:56:04;6.10;93.30
22645;DHT22;11489;50.834;6.752;2022-11-20T09:58:42;6.10;93.40
22645;DHT22;11489;50.834;6.752;2022-11-20T10:01:18;6.20;93.20
22645;DHT22;11489;50.834;6.752;2022-11-20T10:04:20;6.20;93.10
22645;DHT22;11489;50.834;6.752;2022-11-20T10:07:13;6.30;92.40
22645;DHT22;11489;50.834;6.752;2022-11-20T10:09:50;6.30;92.60
22645;DHT22;11489;50.834;6.752;2022-11-20T10:12:40;6.40;93.00
22645;DHT22;11489;50.834;6.752;2022-11-20T10:29:12;6.50;92.60
22645;DHT22;11489;50.834;6.752;2022-11-20T10:31:54;6.50;92.50
22645;DHT22;11489;50.834;6.752;2022-11-20T10:34:34;6.50;92.30
22645;DHT22;11489;50.834;6.752;2022-11-20T10:37:22;6.40;92.30
22645;DHT22;11489;50.834;6.752;2022-11-20T10:40:23;6.40;92.20
22645;DHT22;11489;50.834;6.752;2022-11-20T10:43:32;6.40;92.10
22645;DHT22;11489;50.834;6.752;2022-11-20T10:46:14;6.30;92.10
22645;DHT22;11489;50.834;6.752;2022-11-20T10:48:43;6.30;92.20
22645;DHT22;11489;50.834;6.752;2022-11-20T10:56:46;6.20;92.40
22645;DHT22;11489;50.834;6.752;2022-11-20T10:59:45;6.20;92.40
22645;DHT22;11489;50.834;6.752;2022-11-20T11:02:18;6.20;92.30
22645;DHT22;11489;50.834;6.752;2022-11-20T11:04:53;6.20;92.80
22645;DHT22;11489;50.834;6.752;2022-11-20T11:07:32;6.30;93.00
22645;DHT22;11489;50.834;6.752;2022-11-20T11:09:59;6.30;93.00
22645;DHT22;11489;50.834;6.752;2022-11-20T11:12:27;6.30;93.10
22645;DHT22;11489;50.834;6.752;2022-11-20T11:14:55;6.40;93.10
22645;DHT22;11489;50.834;6.752;2022-11-20T11:17:24;6.50;93.10
22645;DHT22;11489;50.834;6.752;2022-11-20T11:22:52;6.60;92.90
22645;DHT22;11489;50.834;6.752;2022-11-20T11:25:21;6.60;92.80
22645;DHT22;11489;50.834;6.752;2022-11-20T11:27:49;6.60;92.90
22645;DHT22;11489;50.834;6.752;2022-11-20T11:30:18;6.60;92.80
22645;DHT22;11489;50.834;6.752;2022-11-20T11:32:45;6.70;92.90
22645;DHT22;11489;50.834;6.752;2022-11-20T11:35:24;6.70;92.90
22645;DHT22;11489;50.834;6.752;2022-11-20T11:37:51;6.80;92.60
22645;DHT22;11489;50.834;6.752;2022-11-20T11:40:21;6.80;92.70
22645;DHT22;11489;50.834;6.752;2022-11-20T11:42:53;6.80;92.60
22645;DHT22;11489;50.834;6.752;2022-11-20T11:45:20;6.80;92.50
22645;DHT22;11489;50.834;6.752;2022-11-20T11:47:47;6.80;92.60
22645;DHT22;11489;50.834;6.752;2022-11-20T11:50:28;6.80;92.50
22645;DHT22;11489;50.834;6.752;2022-11-20T11:53:39;6.80;92.20
22645;DHT22;11489;50.834;6.752;2022-11-20T12:01:07;6.80;92.50
22645;DHT22;11489;50.834;6.752;2022-11-20T12:03:38;6.80;92.60
22645;DHT22;11489;50.834;6.752;2022-11-20T12:06:14;6.80;92.70
22645;DHT22;11489;50.834;6.752;2022-11-20T12:11:29;6.90;92.80
22645;DHT22;11489;50.834;6.752;2022-11-20T12:14:00;6.90;92.90
22645;DHT22;11489;50.834;6.752;2022-11-20T12:16:34;6.90;92.90
22645;DHT22;11489;50.834;6.752;2022-11-20T12:19:01;7.00;93.00
22645;DHT22;11489;50.834;6.752;2022-11-20T12:21:41;7.00;93.10
22645;DHT22;11489;50.834;6.752;2022-11-20T12:30:16;7.30;92.60
22645;DHT22;11489;50.834;6.752;2022-11-20T12:33:04;7.30;92.80
22645;DHT22;11489;50.834;6.752;2022-11-20T12:35:54;7.30;92.40
22645;DHT22;11489;50.834;6.752;2022-11-20T12:38:40;7.30;92.30
22645;DHT22;11489;50.834;6.752;2022-11-20T12:55:54;7.20;92.30
22645;DHT22;11489;50.834;6.752;2022-11-20T12:59:00;7.20;92.30
22645;DHT22;11489;50.834;6.752;2022-11-20T13:06:58;7.20;92.60
22645;DHT22;11489;50.834;6.752;2022-11-20T13:09:24;7.20;92.80
22645;DHT22;11489;50.834;6.752;2022-11-20T13:12:09;7.20;92.70
22645;DHT22;11489;50.834;6.752;2022-11-20T13:14:51;7.20;92.40
22645;DHT22;11489;50.834;6.752;2022-11-20T13:20:12;7.20;92.40
22645;DHT22;11489;50.834;6.752;2022-11-20T13:22:52;7.20;92.80
22645;DHT22;11489;50.834;6.752;2022-11-20T13:25:29;7.30;92.50
22645;DHT22;11489;50.834;6.752;2022-11-20T13:27:57;7.30;92.50
22645;DHT22;11489;50.834;6.752;2022-11-20T13:30:25;7.20;92.60
22645;DHT22;11489;50.834;6.752;2022-11-20T13:32:55;7.30;92.60
22645;DHT22;11489;50.834;6.752;2022-11-20T13:35:31;7.20;92.60
22645;DHT22;11489;50.834;6.752;2022-11-20T13:38:05;7.20;92.50
22645;DHT22;11489;50.834;6.752;2022-11-20T13:40:32;7.20;92.40
22645;DHT22;11489;50.834;6.752;2022-11-20T13:43:40;7.20;92.50
22645;DHT22;11489;50.834;6.752;2022-11-20T13:46:09;7.20;92.00
22645;DHT22;11489;50.834;6.752;2022-11-20T13:48:43;7.20;92.50
22645;DHT22;11489;50.834;6.752;2022-11-20T13:56:59;7.20;92.50
22645;DHT22;11489;50.834;6.752;2022-11-20T14:02:17;7.20;92.10
22645;DHT22;11489;50.834;6.752;2022-11-20T14:04:46;7.20;92.40
22645;DHT22;11489;50.834;6.752;2022-11-20T14:07:13;7.10;92.50
22645;DHT22;11489;50.834;6.752;2022-11-20T14:09:52;7.10;92.50
22645;DHT22;11489;50.834;6.752;2022-11-20T14:12:21;7.10;92.40
22645;DHT22;11489;50.834;6.752;2022-11-20T14:14:50;7.10;92.60
22645;DHT22;11489;50.834;6.752;2022-11-20T14:17:33;7.10;92.60
22645;DHT22;11489;50.834;6.752;2022-11-20T14:20:02;7.10;92.40
22645;DHT22;11489;50.834;6.752;2022-11-20T14:22:29;7.10;92.60
22645;DHT22;11489;50.834;6.752;2022-11-20T14:27:41;7.20;92.40
22645;DHT22;11489;50.834;6.752;2022-11-20T14:30:23;7.10;92.60
22645;DHT22;11489;50.834;6.752;2022-11-20T14:32:50;7.10;92.40
22645;DHT22;11489;50.834;6.752;2022-11-20T14:35:25;7.20;92.60
22645;DHT22;11489;50.834;6.752;2022-11-20T14:37:51;7.20;92.60
22645;DHT22;11489;50.834;6.752;2022-11-20T14:40:35;7.10;92.50
22645;DHT22;11489;50.834;6.752;2022-11-20T14:43:02;7.10;92.30
22645;DHT22;11489;50.834;6.752;2022-11-20T14:45:29;7.10;92.50
22645;DHT22;11489;50.834;6.752;2022-11-20T14:47:56;7.10;92.50
22645;DHT22;11489;50.834;6.752;2022-11-20T14:50:25;7.10;92.50
22645;DHT22;11489;50.834;6.752;2022-11-20T14:52:59;7.10;92.50
22645;DHT22;11489;50.834;6.752;2022-11-20T14:55:33;7.10;92.40
22645;DHT22;11489;50.834;6.752;2022-11-20T14:58:02;7.10;92.50
22645;DHT22;11489;50.834;6.752;2022-11-20T15:00:29;7.10;92.50
22645;DHT22;11489;50.834;6.752;2022-11-20T15:02:55;7.10;92.50
22645;DHT22;11489;50.834;6.752;2022-11-20T15:05:24;7.10;92.50
22645;DHT22;11489;50.834;6.752;2022-11-20T15:08:13;7.00;92.50
22645;DHT22;11489;50.834;6.752;2022-11-20T15:10:38;7.00;92.50
22645;DHT22;11489;50.834;6.752;2022-11-20T15:13:36;7.00;92.50
22645;DHT22;11489;50.834;6.752;2022-11-20T15:16:08;7.00;92.50
22645;DHT22;11489;50.834;6.752;2022-11-20T15:18:40;6.90;92.70
22645;DHT22;11489;50.834;6.752;2022-11-20T15:21:14;6.90;92.80
22645;DHT22;11489;50.834;6.752;2022-11-20T15:23:41;6.90;92.80
22645;DHT22;11489;50.834;6.752;2022-11-20T15:26:08;6.90;92.90
22645;DHT22;11489;50.834;6.752;2022-11-20T15:28:42;6.80;92.90
22645;DHT22;11489;50.834;6.752;2022-11-20T15:31:14;6.90;93.00
22645;DHT22;11489;50.834;6.752;2022-11-20T15:33:39;6.80;93.10
22645;DHT22;11489;50.834;6.752;2022-11-20T15:36:05;6.80;93.10
22645;DHT22;11489;50.834;6.752;2022-11-20T15:38:31;6.80;93.20
22645;DHT22;11489;50.834;6.752;2022-11-20T15:40:57;6.80;93.20
22645;DHT22;11489;50.834;6.752;2022-11-20T15:43:23;6.80;93.30
22645;DHT22;11489;50.834;6.752;2022-11-20T15:45:59;6.80;93.30
22645;DHT22;11489;50.834;6.752;2022-11-20T15:51:06;6.90;93.30
22645;DHT22;11489;50.834;6.752;2022-11-20T15:53:32;6.80;93.30
22645;DHT22;11489;50.834;6.752;2022-11-20T15:55:58;6.80;93.30
22645;DHT22;11489;50.834;6.752;2022-11-20T15:58:24;6.80;93.30
22645;DHT22;11489;50.834;6.752;2022-11-20T16:00:50;6.80;93.40
22645;DHT22;11489;50.834;6.752;2022-11-20T16:03:17;6.80;93.40
22645;DHT22;11489;50.834;6.752;2022-11-20T16:05:43;6.80;93.30
22645;DHT22;11489;50.834;6.752;2022-11-20T16:08:09;6.80;93.40
22645;DHT22;11489;50.834;6.752;2022-11-20T16:10:35;6.80;93.40
22645;DHT22;11489;50.834;6.752;2022-11-20T16:13:01;6.80;93.40
22645;DHT22;11489;50.834;6.752;2022-11-20T16:15:55;6.90;93.40
22645;DHT22;11489;50.834;6.752;2022-11-20T16:18:22;6.80;93.40
22645;DHT22;11489;50.834;6.752;2022-11-20T16:20:57;6.80;93.70
22645;DHT22;11489;50.834;6.752;2022-11-20T16:23:23;6.80;93.30
22645;DHT22;11489;50.834;6.752;2022-11-20T16:25:49;6.80;93.40
22645;DHT22;11489;50.834;6.752;2022-11-20T16:28:16;6.80;93.40
22645;DHT22;11489;50.834;6.752;2022-11-20T16:30:42;6.80;93.40
22645;DHT22;11489;50.834;6.752;2022-11-20T16:33:12;6.80;93.40
22645;DHT22;11489;50.834;6.752;2022-11-20T16:35:38;6.80;93.40
22645;DHT22;11489;50.834;6.752;2022-11-20T16:38:03;6.80;93.40
22645;DHT22;11489;50.834;6.752;2022-11-20T16:40:29;6.70;93.40
22645;DHT22;11489;50.834;6.752;2022-11-20T16:42:55;6.70;93.40
22645;DHT22;11489;50.834;6.752;2022-11-20T16:45:20;6.70;93.50
22645;DHT22;11489;50.834;6.752;2022-11-20T16:47:46;6.80;93.50
22645;DHT22;11489;50.834;6.752;2022-11-20T16:50:12;6.70;93.50
22645;DHT22;11489;50.834;6.752;2022-11-20T16:52:38;6.70;93.50
22645;DHT22;11489;50.834;6.752;2022-11-20T16:55:04;6.70;93.50
22645;DHT22;11489;50.834;6.752;2022-11-20T16:57:30;6.70;93.50
22645;DHT22;11489;50.834;6.752;2022-11-20T16:59:58;6.70;93.50
22645;DHT22;11489;50.834;6.752;2022-11-20T17:02:24;6.70;93.60
22645;DHT22;11489;50.834;6.752;2022-11-20T17:04:51;6.70;93.60
22645;DHT22;11489;50.834;6.752;2022-11-20T17:07:17;6.70;93.60
22645;DHT22;11489;50.834;6.752;2022-11-20T17:09:42;6.70;93.60
22645;DHT22;11489;50.834;6.752;2022-11-20T17:12:08;6.70;93.60
22645;DHT22;11489;50.834;6.752;2022-11-20T17:14:34;6.70;93.60
22645;DHT22;11489;50.834;6.752;2022-11-20T17:17:00;6.70;93.60
22645;DHT22;11489;50.834;6.752;2022-11-20T17:19:25;6.70;93.60
22645;DHT22;11489;50.834;6.752;2022-11-20T17:21:51;6.70;93.60